sensor_id;sensor_type;location;lat;lon;timestamp;P1;durP1;ratioP1;P2;durP2;ratioP2
74626;SDS011;63132;52.268;5.192;2023-10-13T00:00:21;33.03;;;17.98;;
74626;SDS011;63132;52.268;5.192;2023-10-13T00:02:55;34.38;;;18.10;;
74626;SDS011;63132;52.268;5.192;2023-10-13T00:05:25;39.38;;;18.00;;
74626;SDS011;63132;52.268;5.192;2023-10-13T00:07:51;32.05;;;17.65;;
74626;SDS011;63132;52.268;5.192;2023-10-13T00:10:16;34.42;;;18.30;;
74626;SDS011;63132;52.268;5.192;2023-10-13T00:12:44;39.13;;;19.95;;
74626;SDS011;63132;52.268;5.192;2023-10-13T00:15:14;38.22;;;19.98;;
74626;SDS011;63132;52.268;5.192;2023-10-13T00:17:42;33.42;;;17.35;;
74626;SDS011;63132;52.268;5.192;2023-10-13T00:20:08;34.65;;;19.20;;
74626;SDS011;63132;52.268;5.192;2023-10-13T00:22:41;30.35;;;18.40;;
74626;SDS011;63132;52.268;5.192;2023-10-13T00:25:06;36.28;;;20.25;;
74626;SDS011;63132;52.268;5.192;2023-10-13T00:27:37;37.65;;;20.10;;
74626;SDS011;63132;52.268;5.192;2023-10-13T00:30:07;42.47;;;20.35;;
74626;SDS011;63132;52.268;5.192;2023-10-13T00:32:58;41.13;;;20.05;;
74626;SDS011;63132;52.268;5.192;2023-10-13T00:35:26;37.40;;;19.42;;
74626;SDS011;63132;52.268;5.192;2023-10-13T00:38:02;40.40;;;18.83;;
74626;SDS011;63132;52.268;5.192;2023-10-13T00:40:48;32.95;;;18.52;;
74626;SDS011;63132;52.268;5.192;2023-10-13T00:43:17;36.35;;;18.48;;
74626;SDS011;63132;52.268;5.192;2023-10-13T00:45:43;39.05;;;18.33;;
74626;SDS011;63132;52.268;5.192;2023-10-13T00:48:28;38.28;;;18.50;;
74626;SDS011;63132;52.268;5.192;2023-10-13T00:51:02;38.10;;;19.25;;
74626;SDS011;63132;52.268;5.192;2023-10-13T00:53:31;34.95;;;18.70;;
74626;SDS011;63132;52.268;5.192;2023-10-13T00:55:59;34.53;;;19.58;;
74626;SDS011;63132;52.268;5.192;2023-10-13T00:58:32;36.28;;;19.27;;
74626;SDS011;63132;52.268;5.192;2023-10-13T01:01:01;36.60;;;18.02;;
74626;SDS011;63132;52.268;5.192;2023-10-13T01:03:43;38.20;;;18.77;;
74626;SDS011;63132;52.268;5.192;2023-10-13T01:06:24;39.75;;;19.95;;
74626;SDS011;63132;52.268;5.192;2023-10-13T01:09:03;43.67;;;20.20;;
74626;SDS011;63132;52.268;5.192;2023-10-13T01:11:48;42.60;;;21.20;;
74626;SDS011;63132;52.268;5.192;2023-10-13T01:14:19;39.92;;;21.40;;
74626;SDS011;63132;52.268;5.192;2023-10-13T01:16:45;40.72;;;21.88;;
74626;SDS011;63132;52.268;5.192;2023-10-13T01:19:14;43.70;;;22.88;;
74626;SDS011;63132;52.268;5.192;2023-10-13T01:21:45;50.47;;;22.50;;
74626;SDS011;63132;52.268;5.192;2023-10-13T01:24:12;42.67;;;23.48;;
74626;SDS011;63132;52.268;5.192;2023-10-13T01:26:38;45.95;;;24.27;;
74626;SDS011;63132;52.268;5.192;2023-10-13T01:29:05;54.25;;;25.30;;
74626;SDS011;63132;52.268;5.192;2023-10-13T01:31:37;53.80;;;24.38;;
74626;SDS011;63132;52.268;5.192;2023-10-13T01:34:10;43.65;;;24.90;;
74626;SDS011;63132;52.268;5.192;2023-10-13T01:36:37;44.25;;;24.10;;
74626;SDS011;63132;52.268;5.192;2023-10-13T01:39:05;52.03;;;23.27;;
74626;SDS011;63132;52.268;5.192;2023-10-13T01:41:30;43.08;;;22.65;;
74626;SDS011;63132;52.268;5.192;2023-10-13T01:43:56;41.88;;;21.48;;
74626;SDS011;63132;52.268;5.192;2023-10-13T01:46:22;47.13;;;23.27;;
74626;SDS011;63132;52.268;5.192;2023-10-13T01:48:47;44.17;;;24.45;;
74626;SDS011;63132;52.268;5.192;2023-10-13T01:51:13;42.28;;;22.80;;
74626;SDS011;63132;52.268;5.192;2023-10-13T01:53:39;40.38;;;22.45;;
74626;SDS011;63132;52.268;5.192;2023-10-13T01:56:06;43.90;;;22.95;;
74626;SDS011;63132;52.268;5.192;2023-10-13T01:58:38;40.22;;;22.35;;
74626;SDS011;63132;52.268;5.192;2023-10-13T02:01:08;37.47;;;22.67;;
74626;SDS011;63132;52.268;5.192;2023-10-13T02:03:35;39.67;;;22.15;;
74626;SDS011;63132;52.268;5.192;2023-10-13T02:06:13;39.92;;;22.30;;
74626;SDS011;63132;52.268;5.192;2023-10-13T02:08:42;40.15;;;21.52;;
74626;SDS011;63132;52.268;5.192;2023-10-13T02:11:09;36.35;;;19.77;;
74626;SDS011;63132;52.268;5.192;2023-10-13T02:13:34;39.10;;;21.35;;
74626;SDS011;63132;52.268;5.192;2023-10-13T02:16:06;44.65;;;22.33;;
74626;SDS011;63132;52.268;5.192;2023-10-13T02:18:32;36.25;;;20.52;;
74626;SDS011;63132;52.268;5.192;2023-10-13T02:21:07;43.65;;;19.92;;
74626;SDS011;63132;52.268;5.192;2023-10-13T02:23:41;39.33;;;21.02;;
74626;SDS011;63132;52.268;5.192;2023-10-13T02:26:13;38.28;;;20.10;;
74626;SDS011;63132;52.268;5.192;2023-10-13T02:28:55;36.95;;;19.77;;
74626;SDS011;63132;52.268;5.192;2023-10-13T02:31:22;35.90;;;19.33;;
74626;SDS011;63132;52.268;5.192;2023-10-13T02:33:49;37.05;;;19.67;;
74626;SDS011;63132;52.268;5.192;2023-10-13T02:36:14;35.80;;;18.30;;
74626;SDS011;63132;52.268;5.192;2023-10-13T02:38:47;31.77;;;18.25;;
74626;SDS011;63132;52.268;5.192;2023-10-13T02:41:13;39.65;;;18.45;;
74626;SDS011;63132;52.268;5.192;2023-10-13T02:43:44;37.88;;;19.30;;
74626;SDS011;63132;52.268;5.192;2023-10-13T02:46:10;31.40;;;17.98;;
74626;SDS011;63132;52.268;5.192;2023-10-13T02:48:35;34.00;;;17.55;;
74626;SDS011;63132;52.268;5.192;2023-10-13T02:51:07;36.85;;;18.70;;
74626;SDS011;63132;52.268;5.192;2023-10-13T02:53:46;35.65;;;17.63;;
74626;SDS011;63132;52.268;5.192;2023-10-13T02:56:13;34.60;;;17.65;;
74626;SDS011;63132;52.268;5.192;2023-10-13T02:58:45;37.88;;;17.00;;
74626;SDS011;63132;52.268;5.192;2023-10-13T03:01:18;32.95;;;16.70;;
74626;SDS011;63132;52.268;5.192;2023-10-13T03:03:48;34.15;;;16.20;;
74626;SDS011;63132;52.268;5.192;2023-10-13T03:06:16;37.88;;;17.30;;
74626;SDS011;63132;52.268;5.192;2023-10-13T03:08:46;36.03;;;17.55;;
74626;SDS011;63132;52.268;5.192;2023-10-13T03:11:11;35.08;;;16.98;;
74626;SDS011;63132;52.268;5.192;2023-10-13T03:13:39;31.60;;;16.67;;
74626;SDS011;63132;52.268;5.192;2023-10-13T03:16:13;34.20;;;17.52;;
74626;SDS011;63132;52.268;5.192;2023-10-13T03:18:41;32.45;;;16.98;;
74626;SDS011;63132;52.268;5.192;2023-10-13T03:21:16;34.57;;;17.63;;
74626;SDS011;63132;52.268;5.192;2023-10-13T03:23:53;33.65;;;18.73;;
74626;SDS011;63132;52.268;5.192;2023-10-13T03:26:19;35.03;;;17.17;;
74626;SDS011;63132;52.268;5.192;2023-10-13T03:28:46;35.65;;;17.55;;
74626;SDS011;63132;52.268;5.192;2023-10-13T03:31:17;36.58;;;17.92;;
74626;SDS011;63132;52.268;5.192;2023-10-13T03:33:43;39.90;;;18.40;;
74626;SDS011;63132;52.268;5.192;2023-10-13T03:36:11;35.28;;;17.65;;
74626;SDS011;63132;52.268;5.192;2023-10-13T03:38:56;39.00;;;18.35;;
74626;SDS011;63132;52.268;5.192;2023-10-13T03:41:21;35.42;;;19.25;;
74626;SDS011;63132;52.268;5.192;2023-10-13T03:43:49;34.78;;;17.80;;
74626;SDS011;63132;52.268;5.192;2023-10-13T03:46:32;34.13;;;17.70;;
74626;SDS011;63132;52.268;5.192;2023-10-13T03:48:58;35.92;;;18.58;;
74626;SDS011;63132;52.268;5.192;2023-10-13T03:51:26;35.85;;;18.45;;
74626;SDS011;63132;52.268;5.192;2023-10-13T03:53:56;41.47;;;19.92;;
74626;SDS011;63132;52.268;5.192;2023-10-13T03:56:27;32.50;;;17.65;;
74626;SDS011;63132;52.268;5.192;2023-10-13T03:58:54;30.40;;;17.80;;
74626;SDS011;63132;52.268;5.192;2023-10-13T04:01:23;33.35;;;18.60;;
74626;SDS011;63132;52.268;5.192;2023-10-13T04:04:09;33.42;;;16.80;;
74626;SDS011;63132;52.268;5.192;2023-10-13T04:06:40;29.23;;;15.27;;
74626;SDS011;63132;52.268;5.192;2023-10-13T04:09:14;29.92;;;15.60;;
74626;SDS011;63132;52.268;5.192;2023-10-13T04:11:55;26.25;;;14.65;;
74626;SDS011;63132;52.268;5.192;2023-10-13T04:14:28;23.95;;;14.90;;
74626;SDS011;63132;52.268;5.192;2023-10-13T04:17:13;29.63;;;15.20;;
74626;SDS011;63132;52.268;5.192;2023-10-13T04:19:47;37.70;;;15.95;;
74626;SDS011;63132;52.268;5.192;2023-10-13T04:22:32;26.33;;;16.13;;
74626;SDS011;63132;52.268;5.192;2023-10-13T04:25:17;25.70;;;14.35;;
74626;SDS011;63132;52.268;5.192;2023-10-13T04:28:00;26.55;;;15.30;;
74626;SDS011;63132;52.268;5.192;2023-10-13T04:33:21;23.45;;;14.00;;
74626;SDS011;63132;52.268;5.192;2023-10-13T04:36:17;23.63;;;14.30;;
74626;SDS011;63132;52.268;5.192;2023-10-13T04:38:52;22.98;;;14.02;;
74626;SDS011;63132;52.268;5.192;2023-10-13T04:41:34;23.52;;;14.25;;
74626;SDS011;63132;52.268;5.192;2023-10-13T04:44:14;24.70;;;14.93;;
74626;SDS011;63132;52.268;5.192;2023-10-13T04:46:59;25.30;;;15.15;;
74626;SDS011;63132;52.268;5.192;2023-10-13T04:49:28;25.30;;;14.93;;
74626;SDS011;63132;52.268;5.192;2023-10-13T04:52:14;21.27;;;14.00;;
74626;SDS011;63132;52.268;5.192;2023-10-13T04:54:59;27.70;;;14.32;;
74626;SDS011;63132;52.268;5.192;2023-10-13T04:57:35;24.07;;;14.30;;
74626;SDS011;63132;52.268;5.192;2023-10-13T05:00:12;25.42;;;14.73;;
74626;SDS011;63132;52.268;5.192;2023-10-13T05:02:45;25.75;;;14.35;;
74626;SDS011;63132;52.268;5.192;2023-10-13T05:05:20;23.25;;;15.18;;
74626;SDS011;63132;52.268;5.192;2023-10-13T05:07:49;17.42;;;13.27;;
74626;SDS011;63132;52.268;5.192;2023-10-13T05:10:36;20.88;;;13.70;;
74626;SDS011;63132;52.268;5.192;2023-10-13T05:13:21;16.45;;;10.55;;
74626;SDS011;63132;52.268;5.192;2023-10-13T05:16:05;16.50;;;10.40;;
74626;SDS011;63132;52.268;5.192;2023-10-13T05:18:49;18.05;;;12.77;;
74626;SDS011;63132;52.268;5.192;2023-10-13T05:21:33;16.48;;;12.02;;
74626;SDS011;63132;52.268;5.192;2023-10-13T05:24:17;19.65;;;12.90;;
74626;SDS011;63132;52.268;5.192;2023-10-13T05:27:01;17.40;;;11.93;;
74626;SDS011;63132;52.268;5.192;2023-10-13T05:29:46;17.10;;;11.85;;
74626;SDS011;63132;52.268;5.192;2023-10-13T05:32:31;17.88;;;12.10;;
74626;SDS011;63132;52.268;5.192;2023-10-13T05:35:16;27.33;;;13.57;;
74626;SDS011;63132;52.268;5.192;2023-10-13T05:38:00;26.17;;;14.93;;
74626;SDS011;63132;52.268;5.192;2023-10-13T05:43:45;30.05;;;14.00;;
74626;SDS011;63132;52.268;5.192;2023-10-13T05:46:29;18.70;;;11.40;;
74626;SDS011;63132;52.268;5.192;2023-10-13T05:49:04;22.00;;;11.05;;
74626;SDS011;63132;52.268;5.192;2023-10-13T05:51:36;21.50;;;9.57;;
74626;SDS011;63132;52.268;5.192;2023-10-13T05:54:04;20.55;;;9.40;;
74626;SDS011;63132;52.268;5.192;2023-10-13T05:56:39;16.38;;;10.15;;
74626;SDS011;63132;52.268;5.192;2023-10-13T05:59:24;22.38;;;9.68;;
74626;SDS011;63132;52.268;5.192;2023-10-13T06:02:08;20.77;;;7.97;;
74626;SDS011;63132;52.268;5.192;2023-10-13T06:04:52;21.80;;;9.38;;
74626;SDS011;63132;52.268;5.192;2023-10-13T06:07:37;25.23;;;9.65;;
74626;SDS011;63132;52.268;5.192;2023-10-13T06:10:21;16.25;;;8.23;;
74626;SDS011;63132;52.268;5.192;2023-10-13T06:13:04;23.42;;;8.48;;
74626;SDS011;63132;52.268;5.192;2023-10-13T06:15:48;17.05;;;8.55;;
74626;SDS011;63132;52.268;5.192;2023-10-13T06:18:32;23.55;;;8.45;;
74626;SDS011;63132;52.268;5.192;2023-10-13T06:21:16;19.85;;;8.25;;
74626;SDS011;63132;52.268;5.192;2023-10-13T06:24:00;22.58;;;8.93;;
74626;SDS011;63132;52.268;5.192;2023-10-13T06:26:47;20.08;;;8.15;;
74626;SDS011;63132;52.268;5.192;2023-10-13T06:29:31;21.58;;;7.85;;
74626;SDS011;63132;52.268;5.192;2023-10-13T06:31:57;18.35;;;8.40;;
74626;SDS011;63132;52.268;5.192;2023-10-13T06:34:23;20.60;;;8.27;;
74626;SDS011;63132;52.268;5.192;2023-10-13T06:37:02;14.43;;;8.70;;
74626;SDS011;63132;52.268;5.192;2023-10-13T06:39:46;23.33;;;8.18;;
74626;SDS011;63132;52.268;5.192;2023-10-13T06:42:12;17.98;;;8.30;;
74626;SDS011;63132;52.268;5.192;2023-10-13T06:44:37;18.42;;;8.38;;
74626;SDS011;63132;52.268;5.192;2023-10-13T06:47:05;20.85;;;9.05;;
74626;SDS011;63132;52.268;5.192;2023-10-13T06:49:30;19.50;;;9.10;;
74626;SDS011;63132;52.268;5.192;2023-10-13T06:52:03;21.33;;;9.65;;
74626;SDS011;63132;52.268;5.192;2023-10-13T06:54:31;24.98;;;9.93;;
74626;SDS011;63132;52.268;5.192;2023-10-13T06:57:00;31.35;;;10.70;;
74626;SDS011;63132;52.268;5.192;2023-10-13T06:59:28;16.38;;;9.02;;
74626;SDS011;63132;52.268;5.192;2023-10-13T07:01:57;21.85;;;10.80;;
74626;SDS011;63132;52.268;5.192;2023-10-13T07:04:28;28.08;;;10.95;;
74626;SDS011;63132;52.268;5.192;2023-10-13T07:06:54;21.27;;;10.38;;
74626;SDS011;63132;52.268;5.192;2023-10-13T07:09:19;28.95;;;11.20;;
74626;SDS011;63132;52.268;5.192;2023-10-13T07:12:15;26.10;;;11.10;;
74626;SDS011;63132;52.268;5.192;2023-10-13T07:14:48;23.23;;;12.70;;
74626;SDS011;63132;52.268;5.192;2023-10-13T07:17:17;24.73;;;13.23;;
74626;SDS011;63132;52.268;5.192;2023-10-13T07:19:49;25.45;;;14.23;;
74626;SDS011;63132;52.268;5.192;2023-10-13T07:22:18;27.58;;;15.43;;
74626;SDS011;63132;52.268;5.192;2023-10-13T07:24:48;27.50;;;16.17;;
74626;SDS011;63132;52.268;5.192;2023-10-13T07:27:24;33.38;;;17.52;;
74626;SDS011;63132;52.268;5.192;2023-10-13T07:29:53;28.88;;;18.75;;
74626;SDS011;63132;52.268;5.192;2023-10-13T07:32:38;32.17;;;19.15;;
74626;SDS011;63132;52.268;5.192;2023-10-13T07:35:10;38.80;;;21.65;;
74626;SDS011;63132;52.268;5.192;2023-10-13T07:37:36;35.58;;;21.73;;
74626;SDS011;63132;52.268;5.192;2023-10-13T07:40:03;33.40;;;22.30;;
74626;SDS011;63132;52.268;5.192;2023-10-13T07:42:46;30.05;;;20.17;;
74626;SDS011;63132;52.268;5.192;2023-10-13T07:45:12;29.15;;;18.95;;
74626;SDS011;63132;52.268;5.192;2023-10-13T07:47:37;30.10;;;19.08;;
74626;SDS011;63132;52.268;5.192;2023-10-13T07:50:04;29.45;;;17.60;;
74626;SDS011;63132;52.268;5.192;2023-10-13T07:52:31;28.55;;;16.60;;
74626;SDS011;63132;52.268;5.192;2023-10-13T07:55:05;24.90;;;15.00;;
74626;SDS011;63132;52.268;5.192;2023-10-13T07:57:39;22.48;;;14.57;;
74626;SDS011;63132;52.268;5.192;2023-10-13T08:00:20;24.45;;;13.60;;
74626;SDS011;63132;52.268;5.192;2023-10-13T08:03:05;21.40;;;12.90;;
74626;SDS011;63132;52.268;5.192;2023-10-13T08:05:56;23.73;;;12.30;;
74626;SDS011;63132;52.268;5.192;2023-10-13T08:08:32;24.83;;;12.13;;
74626;SDS011;63132;52.268;5.192;2023-10-13T08:11:04;26.17;;;11.57;;
74626;SDS011;63132;52.268;5.192;2023-10-13T08:13:39;20.00;;;10.68;;
74626;SDS011;63132;52.268;5.192;2023-10-13T08:16:11;22.30;;;10.65;;
74626;SDS011;63132;52.268;5.192;2023-10-13T08:18:45;22.85;;;9.15;;
74626;SDS011;63132;52.268;5.192;2023-10-13T08:21:14;18.88;;;8.75;;
74626;SDS011;63132;52.268;5.192;2023-10-13T08:23:47;20.92;;;9.52;;
74626;SDS011;63132;52.268;5.192;2023-10-13T08:26:22;29.67;;;8.20;;
74626;SDS011;63132;52.268;5.192;2023-10-13T08:29:16;20.55;;;8.55;;
74626;SDS011;63132;52.268;5.192;2023-10-13T08:31:48;16.88;;;7.50;;
74626;SDS011;63132;52.268;5.192;2023-10-13T08:34:29;23.13;;;8.73;;
74626;SDS011;63132;52.268;5.192;2023-10-13T08:37:07;18.98;;;8.27;;
74626;SDS011;63132;52.268;5.192;2023-10-13T08:39:51;24.42;;;8.40;;
74626;SDS011;63132;52.268;5.192;2023-10-13T08:42:27;23.90;;;8.23;;
74626;SDS011;63132;52.268;5.192;2023-10-13T08:45:06;20.58;;;6.25;;
74626;SDS011;63132;52.268;5.192;2023-10-13T08:47:49;25.83;;;7.70;;
74626;SDS011;63132;52.268;5.192;2023-10-13T08:50:34;20.20;;;7.53;;
74626;SDS011;63132;52.268;5.192;2023-10-13T08:53:17;17.10;;;6.65;;
74626;SDS011;63132;52.268;5.192;2023-10-13T08:58:46;23.90;;;6.88;;
74626;SDS011;63132;52.268;5.192;2023-10-13T09:04:25;20.15;;;7.50;;
74626;SDS011;63132;52.268;5.192;2023-10-13T09:06:57;21.35;;;7.43;;
74626;SDS011;63132;52.268;5.192;2023-10-13T09:14:51;17.60;;;7.90;;
74626;SDS011;63132;52.268;5.192;2023-10-13T09:17:23;21.42;;;7.35;;
74626;SDS011;63132;52.268;5.192;2023-10-13T09:20:03;21.45;;;7.70;;
74626;SDS011;63132;52.268;5.192;2023-10-13T09:22:50;25.83;;;7.35;;
74626;SDS011;63132;52.268;5.192;2023-10-13T09:25:27;19.98;;;6.47;;
74626;SDS011;63132;52.268;5.192;2023-10-13T09:28:03;12.18;;;6.07;;
74626;SDS011;63132;52.268;5.192;2023-10-13T09:30:41;19.38;;;6.93;;
74626;SDS011;63132;52.268;5.192;2023-10-13T09:33:07;22.05;;;6.43;;
74626;SDS011;63132;52.268;5.192;2023-10-13T09:35:33;21.63;;;7.85;;
74626;SDS011;63132;52.268;5.192;2023-10-13T09:38:02;19.08;;;6.25;;
74626;SDS011;63132;52.268;5.192;2023-10-13T09:40:28;20.02;;;7.10;;
74626;SDS011;63132;52.268;5.192;2023-10-13T09:43:03;24.23;;;7.70;;
74626;SDS011;63132;52.268;5.192;2023-10-13T09:45:39;16.85;;;6.72;;
74626;SDS011;63132;52.268;5.192;2023-10-13T09:48:12;17.73;;;6.88;;
74626;SDS011;63132;52.268;5.192;2023-10-13T09:50:47;19.15;;;7.75;;
74626;SDS011;63132;52.268;5.192;2023-10-13T09:53:14;18.75;;;7.50;;
74626;SDS011;63132;52.268;5.192;2023-10-13T09:55:47;21.85;;;7.80;;
74626;SDS011;63132;52.268;5.192;2023-10-13T09:58:15;22.55;;;6.93;;
74626;SDS011;63132;52.268;5.192;2023-10-13T10:00:47;20.73;;;6.80;;
74626;SDS011;63132;52.268;5.192;2023-10-13T10:03:23;19.67;;;6.90;;
74626;SDS011;63132;52.268;5.192;2023-10-13T10:06:02;21.23;;;6.07;;
74626;SDS011;63132;52.268;5.192;2023-10-13T10:08:42;16.27;;;6.45;;
74626;SDS011;63132;52.268;5.192;2023-10-13T10:17:05;18.88;;;6.30;;
74626;SDS011;63132;52.268;5.192;2023-10-13T10:19:47;26.83;;;6.78;;
74626;SDS011;63132;52.268;5.192;2023-10-13T10:22:24;17.70;;;6.78;;
74626;SDS011;63132;52.268;5.192;2023-10-13T10:25:27;20.50;;;6.97;;
74626;SDS011;63132;52.268;5.192;2023-10-13T10:27:56;20.40;;;7.47;;
74626;SDS011;63132;52.268;5.192;2023-10-13T10:30:28;17.20;;;6.72;;
74626;SDS011;63132;52.268;5.192;2023-10-13T10:32:57;17.58;;;7.07;;
74626;SDS011;63132;52.268;5.192;2023-10-13T10:35:31;16.92;;;6.35;;
74626;SDS011;63132;52.268;5.192;2023-10-13T10:38:10;24.42;;;6.25;;
74626;SDS011;63132;52.268;5.192;2023-10-13T10:40:51;19.63;;;6.10;;
74626;SDS011;63132;52.268;5.192;2023-10-13T10:43:26;15.30;;;6.22;;
74626;SDS011;63132;52.268;5.192;2023-10-13T10:46:17;15.13;;;6.70;;
74626;SDS011;63132;52.268;5.192;2023-10-13T10:48:50;19.45;;;6.28;;
74626;SDS011;63132;52.268;5.192;2023-10-13T10:51:21;18.70;;;6.53;;
74626;SDS011;63132;52.268;5.192;2023-10-13T10:53:47;16.63;;;6.13;;
74626;SDS011;63132;52.268;5.192;2023-10-13T10:56:22;19.70;;;6.68;;
74626;SDS011;63132;52.268;5.192;2023-10-13T10:59:02;20.42;;;7.03;;
74626;SDS011;63132;52.268;5.192;2023-10-13T11:01:29;18.35;;;7.22;;
74626;SDS011;63132;52.268;5.192;2023-10-13T11:04:02;24.75;;;7.05;;
74626;SDS011;63132;52.268;5.192;2023-10-13T11:06:52;16.38;;;6.05;;
74626;SDS011;63132;52.268;5.192;2023-10-13T11:09:25;22.92;;;6.53;;
74626;SDS011;63132;52.268;5.192;2023-10-13T11:12:18;24.15;;;6.63;;
74626;SDS011;63132;52.268;5.192;2023-10-13T11:14:59;15.13;;;6.05;;
74626;SDS011;63132;52.268;5.192;2023-10-13T11:17:39;17.75;;;6.15;;
74626;SDS011;63132;52.268;5.192;2023-10-13T11:20:10;21.58;;;6.90;;
74626;SDS011;63132;52.268;5.192;2023-10-13T11:22:57;18.77;;;6.22;;
74626;SDS011;63132;52.268;5.192;2023-10-13T11:25:23;13.85;;;6.05;;
74626;SDS011;63132;52.268;5.192;2023-10-13T11:27:54;19.90;;;6.55;;
74626;SDS011;63132;52.268;5.192;2023-10-13T11:30:21;25.73;;;6.93;;
74626;SDS011;63132;52.268;5.192;2023-10-13T11:33:03;27.25;;;7.35;;
74626;SDS011;63132;52.268;5.192;2023-10-13T11:35:32;20.42;;;6.65;;
74626;SDS011;63132;52.268;5.192;2023-10-13T11:38:19;19.15;;;6.72;;
74626;SDS011;63132;52.268;5.192;2023-10-13T11:40:55;18.55;;;7.13;;
74626;SDS011;63132;52.268;5.192;2023-10-13T11:43:37;25.25;;;6.30;;
74626;SDS011;63132;52.268;5.192;2023-10-13T11:46:09;15.82;;;6.32;;
74626;SDS011;63132;52.268;5.192;2023-10-13T11:48:35;20.17;;;6.22;;
74626;SDS011;63132;52.268;5.192;2023-10-13T11:51:04;17.75;;;6.70;;
74626;SDS011;63132;52.268;5.192;2023-10-13T11:53:34;20.65;;;6.07;;
74626;SDS011;63132;52.268;5.192;2023-10-13T11:56:00;15.73;;;6.25;;
74626;SDS011;63132;52.268;5.192;2023-10-13T11:58:33;23.70;;;7.45;;
74626;SDS011;63132;52.268;5.192;2023-10-13T12:00:59;18.88;;;7.10;;
74626;SDS011;63132;52.268;5.192;2023-10-13T12:03:33;18.05;;;6.50;;
74626;SDS011;63132;52.268;5.192;2023-10-13T12:06:17;21.23;;;6.43;;
74626;SDS011;63132;52.268;5.192;2023-10-13T12:09:11;20.52;;;7.45;;
74626;SDS011;63132;52.268;5.192;2023-10-13T12:11:46;17.00;;;7.00;;
74626;SDS011;63132;52.268;5.192;2023-10-13T12:14:16;23.23;;;6.65;;
74626;SDS011;63132;52.268;5.192;2023-10-13T12:16:51;17.58;;;6.90;;
74626;SDS011;63132;52.268;5.192;2023-10-13T12:19:20;26.00;;;6.88;;
74626;SDS011;63132;52.268;5.192;2023-10-13T12:21:51;18.60;;;6.43;;
74626;SDS011;63132;52.268;5.192;2023-10-13T12:24:23;22.70;;;7.47;;
74626;SDS011;63132;52.268;5.192;2023-10-13T12:27:04;17.40;;;6.50;;
74626;SDS011;63132;52.268;5.192;2023-10-13T12:29:48;26.98;;;7.65;;
74626;SDS011;63132;52.268;5.192;2023-10-13T12:32:15;20.85;;;7.10;;
74626;SDS011;63132;52.268;5.192;2023-10-13T12:34:45;20.85;;;7.25;;
74626;SDS011;63132;52.268;5.192;2023-10-13T12:37:26;22.15;;;6.53;;
74626;SDS011;63132;52.268;5.192;2023-10-13T12:40:08;24.20;;;7.78;;
74626;SDS011;63132;52.268;5.192;2023-10-13T12:42:53;30.35;;;6.97;;
74626;SDS011;63132;52.268;5.192;2023-10-13T12:45:48;23.88;;;6.35;;
74626;SDS011;63132;52.268;5.192;2023-10-13T12:48:33;21.60;;;7.15;;
74626;SDS011;63132;52.268;5.192;2023-10-13T12:51:18;20.35;;;7.18;;
74626;SDS011;63132;52.268;5.192;2023-10-13T12:56:15;18.27;;;6.82;;
74626;SDS011;63132;52.268;5.192;2023-10-13T12:58:42;23.23;;;7.07;;
74626;SDS011;63132;52.268;5.192;2023-10-13T13:01:16;18.92;;;7.28;;
74626;SDS011;63132;52.268;5.192;2023-10-13T13:03:45;19.33;;;8.48;;
74626;SDS011;63132;52.268;5.192;2023-10-13T13:06:15;19.92;;;6.88;;
74626;SDS011;63132;52.268;5.192;2023-10-13T13:08:50;24.63;;;7.18;;
74626;SDS011;63132;52.268;5.192;2023-10-13T13:11:18;24.65;;;8.15;;
74626;SDS011;63132;52.268;5.192;2023-10-13T13:13:44;28.33;;;7.75;;
74626;SDS011;63132;52.268;5.192;2023-10-13T13:16:11;23.88;;;7.18;;
74626;SDS011;63132;52.268;5.192;2023-10-13T13:18:43;22.23;;;8.18;;
74626;SDS011;63132;52.268;5.192;2023-10-13T13:21:09;15.60;;;7.43;;
74626;SDS011;63132;52.268;5.192;2023-10-13T13:23:38;29.40;;;8.18;;
74626;SDS011;63132;52.268;5.192;2023-10-13T13:26:05;19.95;;;7.43;;
74626;SDS011;63132;52.268;5.192;2023-10-13T13:28:41;25.30;;;7.90;;
74626;SDS011;63132;52.268;5.192;2023-10-13T13:31:07;22.27;;;7.32;;
74626;SDS011;63132;52.268;5.192;2023-10-13T13:33:33;24.20;;;7.28;;
74626;SDS011;63132;52.268;5.192;2023-10-13T13:36:03;24.85;;;7.47;;
74626;SDS011;63132;52.268;5.192;2023-10-13T13:38:31;26.58;;;8.07;;
74626;SDS011;63132;52.268;5.192;2023-10-13T13:40:57;21.30;;;8.32;;
74626;SDS011;63132;52.268;5.192;2023-10-13T13:43:23;22.27;;;7.85;;
74626;SDS011;63132;52.268;5.192;2023-10-13T13:46:09;22.30;;;8.23;;
74626;SDS011;63132;52.268;5.192;2023-10-13T13:48:35;17.58;;;6.97;;
74626;SDS011;63132;52.268;5.192;2023-10-13T13:51:06;20.52;;;7.50;;
74626;SDS011;63132;52.268;5.192;2023-10-13T13:53:39;23.08;;;8.27;;
74626;SDS011;63132;52.268;5.192;2023-10-13T13:56:10;19.13;;;7.82;;
74626;SDS011;63132;52.268;5.192;2023-10-13T13:58:35;28.05;;;9.10;;
74626;SDS011;63132;52.268;5.192;2023-10-13T14:01:03;29.88;;;9.25;;
74626;SDS011;63132;52.268;5.192;2023-10-13T14:03:38;26.63;;;8.48;;
74626;SDS011;63132;52.268;5.192;2023-10-13T14:06:10;25.60;;;8.85;;
74626;SDS011;63132;52.268;5.192;2023-10-13T14:08:42;23.98;;;8.57;;
74626;SDS011;63132;52.268;5.192;2023-10-13T14:11:09;25.20;;;9.07;;
74626;SDS011;63132;52.268;5.192;2023-10-13T14:13:40;21.20;;;9.20;;
74626;SDS011;63132;52.268;5.192;2023-10-13T14:16:15;28.83;;;9.23;;
74626;SDS011;63132;52.268;5.192;2023-10-13T14:18:42;25.40;;;9.80;;
74626;SDS011;63132;52.268;5.192;2023-10-13T14:21:11;23.23;;;9.43;;
74626;SDS011;63132;52.268;5.192;2023-10-13T14:23:42;23.40;;;10.73;;
74626;SDS011;63132;52.268;5.192;2023-10-13T14:26:18;23.02;;;9.88;;
74626;SDS011;63132;52.268;5.192;2023-10-13T14:28:53;23.15;;;10.23;;
74626;SDS011;63132;52.268;5.192;2023-10-13T14:31:28;25.30;;;10.77;;
74626;SDS011;63132;52.268;5.192;2023-10-13T14:33:53;26.80;;;11.02;;
74626;SDS011;63132;52.268;5.192;2023-10-13T14:36:18;24.85;;;11.05;;
74626;SDS011;63132;52.268;5.192;2023-10-13T14:38:45;24.70;;;11.48;;
74626;SDS011;63132;52.268;5.192;2023-10-13T14:41:14;21.98;;;10.30;;
74626;SDS011;63132;52.268;5.192;2023-10-13T14:43:46;22.60;;;10.20;;
74626;SDS011;63132;52.268;5.192;2023-10-13T14:46:18;23.08;;;10.20;;
74626;SDS011;63132;52.268;5.192;2023-10-13T14:48:53;26.63;;;10.13;;
74626;SDS011;63132;52.268;5.192;2023-10-13T14:51:18;25.08;;;9.10;;
74626;SDS011;63132;52.268;5.192;2023-10-13T14:53:44;18.92;;;7.80;;
74626;SDS011;63132;52.268;5.192;2023-10-13T14:56:11;24.25;;;8.27;;
74626;SDS011;63132;52.268;5.192;2023-10-13T14:58:40;15.35;;;7.00;;
74626;SDS011;63132;52.268;5.192;2023-10-13T15:01:12;16.17;;;6.28;;
74626;SDS011;63132;52.268;5.192;2023-10-13T15:03:40;16.48;;;5.90;;
74626;SDS011;63132;52.268;5.192;2023-10-13T15:08:45;16.95;;;5.47;;
74626;SDS011;63132;52.268;5.192;2023-10-13T15:11:11;19.95;;;5.65;;
74626;SDS011;63132;52.268;5.192;2023-10-13T15:13:40;15.98;;;5.00;;
74626;SDS011;63132;52.268;5.192;2023-10-13T15:16:13;18.25;;;6.20;;
74626;SDS011;63132;52.268;5.192;2023-10-13T15:18:39;18.67;;;6.47;;
74626;SDS011;63132;52.268;5.192;2023-10-13T15:21:05;16.98;;;7.00;;
74626;SDS011;63132;52.268;5.192;2023-10-13T15:23:33;24.05;;;7.05;;
74626;SDS011;63132;52.268;5.192;2023-10-13T15:26:07;17.95;;;7.47;;
74626;SDS011;63132;52.268;5.192;2023-10-13T15:28:37;25.50;;;7.85;;
74626;SDS011;63132;52.268;5.192;2023-10-13T15:31:10;27.05;;;7.88;;
74626;SDS011;63132;52.268;5.192;2023-10-13T15:33:49;23.60;;;7.85;;